Terminal Aerodrome Forecast
Issued by NWS

Home | Current Version | Previous Version | Text Only | Print | Product List | Glossary On
Versions: 1 2 3 4 5 6 7 8 9 10 11 12 13 14
000
FTAK31 PAFA 300208 AAA
TAFAUN
TAF AMD
PAUN 300208Z 3002/3024 33005KT P6SM VCSH SCT060 BKN080
     FM300300 10006KT P6SM VCSH BKN040 OVC060
     FM301200 09005KT P6SM SCT060 BKN100
     FM302100 33009KT P6SM SCT080 BKN100=

USA.gov is the U.S. government's official web portal to all federal, state and local government web resources and services.